createdAt,value
2023-04-27T00:02:13.435Z,73.50
2023-04-27T00:04:41.693Z,73.50
2023-04-27T00:07:09.905Z,73.67
2023-04-27T00:09:37.792Z,73.74
2023-04-27T00:12:06.504Z,73.85
2023-04-27T00:14:34.421Z,73.95
2023-04-27T00:17:02.324Z,73.92
2023-04-27T00:19:30.654Z,73.98
2023-04-27T00:22:00.092Z,74.13
2023-04-27T00:24:27.991Z,74.19
2023-04-27T00:26:56.208Z,74.35
2023-04-27T00:29:24.050Z,74.38
2023-04-27T00:31:51.965Z,74.48
2023-04-27T00:34:19.775Z,74.62
2023-04-27T00:36:48.617Z,74.74
2023-04-27T00:39:17.093Z,74.85
2023-04-27T00:41:44.912Z,74.48
2023-04-27T00:44:12.778Z,74.30
2023-04-27T00:46:41.258Z,74.56
2023-04-27T00:49:09.496Z,74.61
2023-04-27T00:51:37.459Z,74.60
2023-04-27T00:54:06.123Z,74.72
2023-04-27T00:56:34.174Z,74.75
2023-04-27T00:59:02.042Z,75.05
2023-04-27T01:01:30.542Z,75.06
2023-04-27T01:03:58.611Z,74.92
2023-04-27T01:06:28.234Z,74.88
2023-04-27T01:08:56.265Z,74.96
2023-04-27T01:11:24.639Z,74.88
2023-04-27T01:13:53.960Z,74.79
2023-04-27T01:16:22.017Z,74.72
2023-04-27T01:18:49.892Z,74.84
2023-04-27T01:21:17.789Z,75.03
2023-04-27T01:23:46.048Z,75.08
2023-04-27T01:26:16.432Z,75.22
2023-04-27T01:28:44.415Z,75.53
2023-04-27T01:31:12.631Z,75.72
2023-04-27T01:33:41.342Z,75.80
2023-04-27T01:36:09.753Z,75.99
2023-04-27T01:38:37.614Z,76.14
2023-04-27T01:41:07.207Z,76.18
2023-04-27T01:43:39.127Z,76.20
2023-04-27T01:46:08.767Z,76.21
2023-04-27T01:48:37.952Z,76.34
2023-04-27T01:51:06.361Z,76.55
2023-04-27T01:53:35.183Z,76.78
2023-04-27T01:56:03.645Z,76.66
2023-04-27T01:58:33.917Z,76.61
2023-04-27T02:01:01.825Z,76.37
2023-04-27T02:03:30.578Z,76.57
2023-04-27T02:05:58.712Z,76.49
2023-04-27T02:08:26.535Z,76.58
2023-04-27T02:10:54.293Z,76.65
2023-04-27T02:13:22.501Z,76.81
2023-04-27T02:15:50.374Z,76.80
2023-04-27T02:18:18.420Z,76.72
2023-04-27T02:20:46.185Z,76.60
2023-04-27T02:23:13.995Z,76.70
2023-04-27T02:25:46.695Z,76.90
2023-04-27T02:28:14.905Z,76.78
2023-04-27T02:30:43.167Z,76.79
2023-04-27T02:33:11.059Z,76.87
2023-04-27T02:35:38.868Z,77.05
2023-04-27T02:38:06.778Z,76.55
2023-04-27T02:40:37.964Z,76.50
2023-04-27T02:43:07.458Z,76.77
2023-04-27T02:45:38.477Z,76.73
2023-04-27T02:48:07.042Z,76.80
2023-04-27T02:50:44.475Z,76.40
2023-04-27T02:53:12.751Z,76.53
2023-04-27T02:55:49.898Z,76.72
2023-04-27T02:58:17.856Z,76.55
2023-04-27T03:00:45.998Z,76.52
2023-04-27T03:03:14.029Z,76.65
2023-04-27T03:05:41.980Z,76.76
2023-04-27T03:08:09.907Z,76.89
2023-04-27T03:10:37.742Z,77.06
2023-04-27T03:13:06.167Z,77.08
2023-04-27T03:15:35.019Z,77.08
2023-04-27T03:18:02.898Z,77.09
2023-04-27T03:20:30.849Z,77.36
2023-04-27T03:22:58.761Z,77.13
2023-04-27T03:25:26.738Z,77.35
2023-04-27T03:27:54.545Z,77.52
2023-04-27T03:30:23.398Z,77.58
2023-04-27T03:32:51.464Z,77.65
2023-04-27T03:35:19.580Z,77.53
2023-04-27T03:37:47.427Z,77.52
2023-04-27T03:40:15.306Z,76.97
2023-04-27T03:42:43.114Z,77.23
2023-04-27T03:45:12.346Z,77.20
2023-04-27T03:47:41.182Z,77.37
2023-04-27T03:50:10.109Z,77.67
2023-04-27T03:52:38.011Z,77.81
2023-04-27T03:55:07.073Z,77.79
2023-04-27T03:57:35.165Z,77.89
2023-04-27T04:00:07.735Z,78.05
2023-04-27T04:02:40.778Z,78.08
2023-04-27T04:05:09.335Z,78.13
2023-04-27T04:07:37.228Z,78.28
2023-04-27T04:10:05.910Z,78.50
2023-04-27T04:12:34.113Z,78.51
2023-04-27T04:15:05.973Z,78.57
2023-04-27T04:17:34.261Z,78.59
2023-04-27T04:20:07.098Z,78.56
2023-04-27T04:22:34.886Z,78.44
2023-04-27T04:25:03.769Z,78.54
2023-04-27T04:27:32.242Z,78.65
2023-04-27T04:30:00.762Z,78.81
2023-04-27T04:32:29.925Z,78.79
2023-04-27T04:34:59.111Z,78.84
2023-04-27T04:37:28.291Z,78.85
2023-04-27T04:39:56.452Z,78.98
2023-04-27T04:42:26.291Z,78.92
2023-04-27T04:44:54.132Z,79.00
2023-04-27T04:47:22.308Z,78.93
2023-04-27T04:49:50.098Z,79.00
2023-04-27T04:52:18.058Z,79.24
2023-04-27T04:54:46.080Z,79.26
2023-04-27T04:57:13.863Z,79.16
2023-04-27T04:59:42.320Z,79.13
2023-04-27T05:02:10.153Z,79.06
2023-04-27T05:04:38.011Z,78.92
2023-04-27T05:07:06.801Z,78.99
2023-04-27T05:09:34.659Z,78.93
2023-04-27T05:12:02.687Z,78.63
2023-04-27T05:14:30.555Z,78.45
2023-04-27T05:16:58.547Z,78.50
2023-04-27T05:19:30.201Z,78.50
2023-04-27T05:21:58.886Z,78.45
2023-04-27T05:24:26.976Z,78.36
2023-04-27T05:26:55.083Z,78.34
2023-04-27T05:29:23.064Z,78.42
2023-04-27T05:31:51.107Z,78.52
2023-04-27T05:34:19.165Z,78.51
2023-04-27T05:36:47.324Z,78.61
2023-04-27T05:39:15.365Z,78.43
2023-04-27T05:41:43.364Z,78.30
2023-04-27T05:44:11.303Z,78.30
2023-04-27T05:46:39.095Z,78.07
2023-04-27T05:49:07.184Z,78.01
2023-04-27T05:51:35.756Z,77.98
2023-04-27T05:54:03.716Z,77.95
2023-04-27T05:56:31.533Z,77.69
2023-04-27T05:59:01.770Z,77.28
2023-04-27T06:01:30.431Z,76.84
2023-04-27T06:04:01.489Z,76.61
2023-04-27T06:06:33.001Z,76.24
2023-04-27T06:09:00.902Z,76.38
2023-04-27T06:11:28.800Z,76.22
2023-04-27T06:13:56.843Z,76.09
2023-04-27T06:16:24.873Z,75.96
2023-04-27T06:18:52.959Z,75.79
2023-04-27T06:21:22.192Z,75.54
2023-04-27T06:23:50.017Z,75.29
2023-04-27T06:26:17.859Z,74.87
2023-04-27T06:28:45.669Z,74.40
2023-04-27T06:31:13.549Z,74.12
2023-04-27T06:33:41.649Z,73.76
2023-04-27T06:36:09.586Z,73.60
2023-04-27T06:38:37.417Z,73.41
2023-04-27T06:41:05.303Z,73.59
2023-04-27T06:43:33.090Z,73.09
2023-04-27T06:46:01.298Z,73.06
2023-04-27T06:48:29.140Z,72.59
2023-04-27T06:50:57.044Z,72.69
2023-04-27T06:53:24.814Z,72.38
2023-04-27T06:55:52.688Z,72.53
2023-04-27T06:58:20.987Z,71.75
2023-04-27T07:00:48.943Z,71.74
2023-04-27T07:03:17.089Z,71.08
2023-04-27T07:05:45.495Z,70.50
2023-04-27T07:08:13.449Z,70.54
2023-04-27T07:10:41.782Z,70.16
2023-04-27T07:13:11.265Z,70.06
2023-04-27T07:15:40.279Z,69.78
2023-04-27T07:18:08.301Z,69.39
2023-04-27T07:20:38.348Z,69.02
2023-04-27T07:23:06.307Z,68.37
2023-04-27T07:25:34.208Z,68.30
2023-04-27T07:28:01.943Z,68.40
2023-04-27T07:30:31.128Z,67.72
2023-04-27T07:33:00.877Z,67.56
2023-04-27T07:35:29.120Z,67.56
2023-04-27T07:37:56.907Z,67.17
2023-04-27T07:40:24.891Z,67.26
2023-04-27T07:42:52.796Z,66.34
2023-04-27T07:45:22.331Z,65.45
2023-04-27T07:47:50.195Z,65.66
2023-04-27T07:50:22.136Z,65.43
2023-04-27T07:52:49.934Z,65.80
2023-04-27T07:55:18.098Z,65.34
2023-04-27T07:57:46.139Z,64.46
2023-04-27T08:00:14.296Z,64.03
2023-04-27T08:02:42.339Z,63.63
2023-04-27T08:05:10.836Z,63.39
2023-04-27T08:07:44.457Z,63.10
2023-04-27T08:10:13.966Z,62.31
2023-04-27T08:12:41.994Z,61.84
2023-04-27T08:15:11.030Z,60.83
2023-04-27T08:17:41.889Z,61.99
2023-04-27T08:20:14.020Z,61.53
2023-04-27T08:22:42.740Z,61.45
2023-04-27T08:25:10.748Z,61.01
2023-04-27T08:27:40.347Z,59.80
2023-04-27T08:30:09.031Z,59.59
2023-04-27T08:32:37.428Z,60.10
2023-04-27T08:35:06.463Z,58.82
2023-04-27T08:37:34.360Z,58.62
2023-04-27T08:40:06.559Z,57.90
2023-04-27T08:42:34.434Z,57.90
2023-04-27T08:45:02.751Z,57.80
2023-04-27T08:47:41.608Z,57.43
2023-04-27T08:50:12.277Z,57.92
2023-04-27T08:52:40.372Z,57.38
2023-04-27T08:55:08.668Z,56.91
2023-04-27T08:57:36.453Z,56.50
2023-04-27T09:00:13.173Z,55.27
2023-04-27T09:02:48.359Z,54.57
2023-04-27T09:05:21.935Z,54.50
2023-04-27T09:08:07.861Z,53.77
2023-04-27T09:10:50.793Z,53.40
2023-04-27T09:13:18.968Z,53.38
2023-04-27T09:15:52.206Z,52.91
2023-04-27T09:18:24.068Z,52.83
2023-04-27T09:20:53.508Z,51.25
2023-04-27T09:23:32.632Z,50.93
2023-04-27T09:26:04.173Z,51.46
2023-04-27T09:28:32.508Z,51.31
2023-04-27T09:31:03.157Z,50.61
2023-04-27T09:33:34.082Z,49.79
2023-04-27T09:36:06.148Z,49.59
2023-04-27T09:38:34.444Z,48.42
2023-04-27T09:41:03.305Z,48.40
2023-04-27T09:43:31.624Z,48.95
2023-04-27T09:45:59.726Z,47.44
2023-04-27T09:48:28.254Z,46.95
2023-04-27T09:50:56.337Z,47.61
2023-04-27T09:53:36.165Z,46.48
2023-04-27T09:56:28.245Z,46.78
2023-04-27T09:59:18.232Z,46.56
2023-04-27T10:01:55.520Z,47.28
2023-04-27T10:05:13.061Z,47.19
2023-04-27T10:07:41.431Z,47.87
2023-04-27T10:10:20.838Z,47.61
2023-04-27T10:13:03.769Z,47.36
2023-04-27T10:15:32.057Z,47.95
2023-04-27T10:18:05.749Z,48.29
2023-04-27T10:20:37.763Z,48.55
2023-04-27T10:23:05.668Z,48.61
2023-04-27T10:25:42.150Z,48.31
2023-04-27T10:28:17.945Z,47.02
2023-04-27T10:30:49.128Z,46.71
2023-04-27T10:33:21.690Z,47.24
2023-04-27T10:35:58.906Z,46.88
2023-04-27T10:38:30.960Z,46.82
2023-04-27T10:41:10.993Z,47.26
2023-04-27T10:43:39.132Z,46.35
2023-04-27T10:46:13.394Z,45.53
2023-04-27T10:48:43.509Z,46.13
2023-04-27T10:51:17.465Z,45.63
2023-04-27T10:53:45.500Z,46.12
2023-04-27T10:56:13.430Z,46.41
2023-04-27T10:58:48.930Z,44.94
2023-04-27T11:01:27.708Z,44.88
2023-04-27T11:04:01.086Z,45.28
2023-04-27T11:06:32.082Z,44.96
2023-04-27T11:09:01.581Z,44.73
2023-04-27T11:11:29.785Z,45.60
2023-04-27T11:13:58.231Z,45.43
2023-04-27T11:16:26.273Z,45.44
2023-04-27T11:18:54.501Z,45.50
2023-04-27T11:21:23.555Z,46.19
2023-04-27T11:23:51.430Z,46.24
2023-04-27T11:26:26.690Z,46.16
2023-04-27T11:28:59.879Z,46.16
2023-04-27T11:31:43.632Z,46.47
2023-04-27T11:34:22.583Z,46.65
2023-04-27T11:37:17.827Z,46.12
2023-04-27T11:39:46.665Z,46.54
2023-04-27T11:42:28.743Z,46.60
2023-04-27T11:45:10.813Z,46.72
2023-04-27T11:47:41.064Z,46.68
2023-04-27T11:50:09.889Z,46.79
2023-04-27T11:52:40.283Z,46.40
2023-04-27T11:55:10.780Z,46.04
2023-04-27T11:57:39.016Z,46.66
2023-04-27T12:00:11.335Z,47.14
2023-04-27T12:02:44.025Z,47.17
2023-04-27T12:05:13.471Z,46.19
2023-04-27T12:07:43.271Z,46.67
2023-04-27T12:10:11.983Z,47.24
2023-04-27T12:12:40.102Z,47.13
2023-04-27T12:15:09.185Z,47.27
2023-04-27T12:17:38.296Z,47.59
2023-04-27T12:20:06.896Z,48.46
2023-04-27T12:22:34.763Z,48.94
2023-04-27T12:25:02.602Z,48.72
2023-04-27T12:27:30.402Z,48.02
2023-04-27T12:29:59.494Z,47.67
2023-04-27T12:32:28.025Z,47.39
2023-04-27T12:34:56.248Z,47.44
2023-04-27T12:37:26.726Z,47.06
2023-04-27T12:39:55.208Z,47.76
2023-04-27T12:42:24.430Z,47.61
2023-04-27T12:44:53.376Z,47.59
2023-04-27T12:47:45.793Z,47.51
2023-04-27T12:50:10.012Z,47.43
2023-04-27T12:52:38.207Z,47.74
2023-04-27T12:55:15.207Z,47.71
2023-04-27T12:57:49.465Z,46.86
2023-04-27T13:00:17.741Z,47.69
2023-04-27T13:02:46.819Z,48.48
2023-04-27T13:05:14.803Z,48.57
2023-04-27T13:07:42.666Z,48.94
2023-04-27T13:10:12.167Z,49.29
2023-04-27T13:12:40.400Z,49.84
2023-04-27T13:15:09.757Z,49.46
2023-04-27T13:17:38.090Z,50.07
2023-04-27T13:20:07.363Z,50.67
2023-04-27T13:22:35.152Z,51.06
2023-04-27T13:25:03.218Z,50.41
2023-04-27T13:27:31.173Z,50.69
2023-04-27T13:29:58.923Z,50.66
2023-04-27T13:32:26.887Z,51.79
2023-04-27T13:34:54.731Z,52.12
2023-04-27T13:37:23.654Z,52.89
2023-04-27T13:39:51.831Z,52.90
2023-04-27T13:42:19.724Z,53.06
2023-04-27T13:44:47.471Z,53.37
2023-04-27T13:47:15.468Z,53.66
2023-04-27T13:49:43.323Z,54.21
2023-04-27T13:52:11.454Z,54.77
2023-04-27T13:54:39.685Z,55.77
2023-04-27T13:57:07.567Z,56.40
2023-04-27T13:59:35.327Z,57.47
2023-04-27T14:02:03.418Z,58.31
2023-04-27T14:04:32.143Z,59.15
2023-04-27T14:07:00.231Z,60.70
2023-04-27T14:09:28.185Z,61.44
2023-04-27T14:11:57.347Z,62.65
2023-04-27T14:14:25.411Z,63.91
2023-04-27T14:16:53.615Z,64.73
2023-04-27T14:19:22.272Z,65.42
2023-04-27T14:21:50.695Z,66.31
2023-04-27T14:24:18.964Z,66.61
2023-04-27T14:26:47.904Z,67.16
2023-04-27T14:29:16.214Z,68.07
2023-04-27T14:31:45.778Z,68.37
2023-04-27T14:34:19.553Z,69.00
2023-04-27T14:36:49.092Z,69.72
2023-04-27T14:39:17.147Z,70.58
2023-04-27T14:41:45.005Z,70.83
2023-04-27T14:44:12.849Z,71.82
2023-04-27T14:46:40.735Z,72.32
2023-04-27T14:49:08.862Z,72.93
2023-04-27T14:51:36.652Z,73.03
2023-04-27T14:54:04.494Z,73.54
2023-04-27T14:56:33.709Z,73.80
2023-04-27T14:59:01.685Z,74.58
2023-04-27T15:01:29.605Z,74.72
2023-04-27T15:03:58.173Z,74.66
2023-04-27T15:06:28.515Z,75.13
2023-04-27T15:08:56.511Z,75.10
2023-04-27T15:11:24.631Z,75.66
2023-04-27T15:13:52.425Z,76.06
2023-04-27T15:16:20.935Z,76.16
2023-04-27T15:18:48.835Z,76.85
2023-04-27T15:21:16.584Z,77.07
2023-04-27T15:23:44.489Z,77.20
2023-04-27T15:26:12.561Z,77.45
2023-04-27T15:28:40.694Z,77.83
2023-04-27T15:31:08.544Z,78.06
2023-04-27T15:33:36.526Z,78.20
2023-04-27T15:36:04.616Z,78.14
2023-04-27T15:38:32.353Z,78.21
2023-04-27T15:41:00.144Z,78.32
2023-04-27T15:43:27.945Z,78.68
2023-04-27T15:45:55.711Z,78.78
2023-04-27T15:48:23.499Z,78.87
2023-04-27T15:50:51.426Z,78.78
2023-04-27T15:53:19.181Z,79.07
2023-04-27T15:55:46.967Z,78.83
2023-04-27T15:58:16.462Z,78.87
2023-04-27T16:00:44.307Z,78.94
2023-04-27T16:03:14.303Z,79.02
2023-04-27T16:05:42.423Z,79.17
2023-04-27T16:08:10.227Z,78.63
2023-04-27T16:10:38.052Z,78.89
2023-04-27T16:13:05.958Z,78.74
2023-04-27T16:15:33.831Z,79.04
2023-04-27T16:18:02.257Z,78.95
2023-04-27T16:20:32.034Z,78.86
2023-04-27T16:23:00.573Z,78.91
2023-04-27T16:25:28.367Z,79.15
2023-04-27T16:27:59.125Z,79.40
2023-04-27T16:30:26.978Z,79.51
2023-04-27T16:32:55.683Z,79.66
2023-04-27T16:35:23.710Z,79.76
2023-04-27T16:37:53.822Z,80.21
2023-04-27T16:40:21.904Z,80.44
2023-04-27T16:42:49.752Z,80.38
2023-04-27T16:45:18.546Z,80.57
2023-04-27T16:47:46.457Z,80.92
2023-04-27T16:50:14.701Z,81.04
2023-04-27T16:52:42.472Z,80.82
2023-04-27T16:55:10.451Z,81.06
2023-04-27T16:57:38.252Z,81.10
2023-04-27T17:00:09.174Z,80.97
2023-04-27T17:02:37.375Z,80.93
2023-04-27T17:05:06.349Z,81.07
2023-04-27T17:07:34.222Z,81.24
2023-04-27T17:10:02.203Z,81.11
2023-04-27T17:12:30.065Z,81.29
2023-04-27T17:14:57.933Z,81.47
2023-04-27T17:17:25.832Z,81.49
2023-04-27T17:19:53.694Z,81.45
2023-04-27T17:22:21.958Z,81.51
2023-04-27T17:24:49.928Z,81.66
2023-04-27T17:27:19.236Z,81.80
2023-04-27T17:29:47.678Z,82.00
2023-04-27T17:32:15.490Z,81.93
2023-04-27T17:34:43.626Z,82.36
2023-04-27T17:37:11.392Z,82.56
2023-04-27T17:39:39.205Z,82.52
2023-04-27T17:42:11.933Z,82.68
2023-04-27T17:44:41.544Z,82.88
2023-04-27T17:47:09.734Z,82.86
2023-04-27T17:49:37.935Z,83.07
2023-04-27T17:52:05.984Z,83.05
2023-04-27T17:54:33.794Z,83.00
2023-04-27T17:57:02.055Z,83.17
2023-04-27T17:59:29.997Z,83.09
2023-04-27T18:01:58.588Z,82.98
2023-04-27T18:04:26.898Z,83.09
2023-04-27T18:06:56.080Z,83.27
2023-04-27T18:09:26.253Z,83.43
2023-04-27T18:11:54.028Z,83.53
2023-04-27T18:14:21.862Z,83.63
2023-04-27T18:16:49.810Z,83.90
2023-04-27T18:19:17.740Z,84.01
2023-04-27T18:21:46.298Z,83.91
2023-04-27T18:24:14.124Z,83.97
2023-04-27T18:26:42.013Z,84.18
2023-04-27T18:29:10.154Z,84.16
2023-04-27T18:31:38.175Z,84.37
2023-04-27T18:34:06.304Z,84.29
2023-04-27T18:36:34.323Z,84.38
2023-04-27T18:39:02.188Z,84.51
2023-04-27T18:41:30.047Z,84.69
2023-04-27T18:44:05.745Z,84.50
2023-04-27T18:46:34.679Z,84.71
2023-04-27T18:49:02.583Z,84.70
2023-04-27T18:51:32.313Z,84.77
2023-04-27T18:54:01.081Z,84.78
2023-04-27T18:56:30.513Z,84.80
2023-04-27T18:59:00.610Z,84.77
2023-04-27T19:01:32.550Z,84.79
2023-04-27T19:04:00.870Z,85.03
2023-04-27T19:06:28.935Z,84.87
2023-04-27T19:08:57.691Z,84.89
2023-04-27T19:11:25.994Z,84.95
2023-04-27T19:13:53.972Z,84.90
2023-04-27T19:16:24.837Z,85.09
2023-04-27T19:18:52.975Z,84.96
2023-04-27T19:21:21.115Z,85.22
2023-04-27T19:23:49.154Z,85.31
2023-04-27T19:26:16.954Z,85.32
2023-04-27T19:28:44.780Z,85.43
2023-04-27T19:31:12.743Z,85.38
2023-04-27T19:33:46.690Z,85.57
2023-04-27T19:36:15.111Z,85.87
2023-04-27T19:38:43.164Z,85.95
2023-04-27T19:41:13.968Z,86.26
2023-04-27T19:43:41.920Z,86.23
2023-04-27T19:46:09.731Z,86.16
2023-04-27T19:48:37.709Z,86.15
2023-04-27T19:51:09.146Z,86.19
2023-04-27T19:53:37.952Z,86.36
2023-04-27T19:56:06.628Z,86.32
2023-04-27T19:58:35.770Z,86.29
2023-04-27T20:01:04.085Z,86.28
2023-04-27T20:03:32.325Z,86.29
2023-04-27T20:06:00.464Z,86.37
2023-04-27T20:08:28.357Z,86.46
2023-04-27T20:10:56.133Z,86.28
2023-04-27T20:13:23.922Z,86.27
2023-04-27T20:15:52.241Z,86.16
2023-04-27T20:18:20.056Z,86.18
2023-04-27T20:20:48.027Z,86.36
2023-04-27T20:23:16.054Z,86.25
2023-04-27T20:25:43.801Z,86.32
2023-04-27T20:28:11.855Z,86.31
2023-04-27T20:30:39.761Z,86.36
2023-04-27T20:33:07.603Z,86.26
2023-04-27T20:35:36.423Z,86.24
2023-04-27T20:38:04.738Z,86.25
2023-04-27T20:40:32.650Z,86.17
2023-04-27T20:43:01.385Z,86.35
2023-04-27T20:45:31.105Z,86.26
2023-04-27T20:47:59.240Z,86.25
2023-04-27T20:50:27.330Z,86.31
2023-04-27T20:52:55.889Z,86.35
2023-04-27T20:55:24.212Z,86.35
2023-04-27T20:57:52.003Z,86.45
2023-04-27T21:00:20.145Z,86.42
2023-04-27T21:02:48.294Z,86.49
2023-04-27T21:05:16.294Z,86.47
2023-04-27T21:07:44.240Z,86.44
2023-04-27T21:10:12.918Z,86.44
2023-04-27T21:12:40.847Z,86.54
2023-04-27T21:15:09.580Z,86.76
2023-04-27T21:17:37.393Z,86.63
2023-04-27T21:20:06.063Z,86.67
2023-04-27T21:22:33.855Z,86.65
2023-04-27T21:25:01.930Z,86.82
2023-04-27T21:27:30.054Z,86.76
2023-04-27T21:29:58.880Z,86.81
2023-04-27T21:32:26.710Z,86.91
2023-04-27T21:34:54.512Z,86.89
2023-04-27T21:37:22.361Z,86.91
2023-04-27T21:39:50.130Z,86.95
2023-04-27T21:42:18.116Z,87.06
2023-04-27T21:44:46.950Z,86.92
2023-04-27T21:47:14.737Z,87.04
2023-04-27T21:49:42.487Z,86.96
2023-04-27T21:52:11.054Z,86.96
2023-04-27T21:54:39.004Z,87.03
2023-04-27T21:57:06.773Z,86.97
2023-04-27T21:59:34.706Z,87.21
2023-04-27T22:02:06.514Z,87.21
2023-04-27T22:04:38.439Z,87.26
2023-04-27T22:07:08.179Z,87.29
2023-04-27T22:09:36.631Z,87.16
2023-04-27T22:12:04.822Z,87.20
2023-04-27T22:14:32.929Z,87.29
2023-04-27T22:17:01.041Z,87.30
2023-04-27T22:19:29.133Z,87.15
2023-04-27T22:21:57.272Z,87.29
2023-04-27T22:24:25.117Z,87.24
2023-04-27T22:26:52.957Z,87.22
2023-04-27T22:29:20.788Z,87.20
2023-04-27T22:31:48.794Z,87.15
2023-04-27T22:34:16.910Z,87.22
2023-04-27T22:36:45.034Z,87.32
2023-04-27T22:39:12.901Z,87.42
2023-04-27T22:41:41.230Z,87.37
2023-04-27T22:44:08.976Z,87.36
2023-04-27T22:46:36.862Z,87.30
2023-04-27T22:49:04.640Z,87.38
2023-04-27T22:51:32.818Z,87.30
2023-04-27T22:54:00.746Z,87.37
2023-04-27T22:56:28.549Z,87.36
2023-04-27T22:58:56.334Z,87.40
2023-04-27T23:01:24.102Z,87.54
2023-04-27T23:03:52.746Z,87.39
2023-04-27T23:06:21.230Z,87.55
2023-04-27T23:08:48.962Z,87.52
2023-04-27T23:11:18.845Z,87.46
2023-04-27T23:13:48.227Z,87.70
2023-04-27T23:16:16.648Z,87.76
2023-04-27T23:18:44.653Z,87.68
2023-04-27T23:21:12.500Z,87.52
2023-04-27T23:23:40.610Z,87.41
2023-04-27T23:26:15.146Z,87.60
2023-04-27T23:28:43.774Z,87.59
2023-04-27T23:31:11.751Z,87.69
2023-04-27T23:33:39.686Z,87.75
2023-04-27T23:36:07.764Z,87.56
2023-04-27T23:38:35.596Z,87.72
2023-04-27T23:41:03.501Z,87.60
2023-04-27T23:43:31.685Z,87.49
2023-04-27T23:45:59.578Z,87.70
2023-04-27T23:48:27.363Z,87.72
2023-04-27T23:51:03.258Z,87.52
2023-04-27T23:53:31.687Z,87.55
2023-04-27T23:55:59.661Z,87.75
2023-04-27T23:58:27.758Z,87.70
